sensor_id;sensor_type;location;lat;lon;timestamp;P1;durP1;ratioP1;P2;durP2;ratioP2
69310;SDS011;56430;48.154;16.458;2023-06-22T00:00:11;9.32;;;2.03;;
69310;SDS011;56430;48.154;16.458;2023-06-22T00:02:38;6.32;;;2.40;;
69310;SDS011;56430;48.154;16.458;2023-06-22T00:05:05;7.53;;;2.30;;
69310;SDS011;56430;48.154;16.458;2023-06-22T00:07:32;8.73;;;1.90;;
69310;SDS011;56430;48.154;16.458;2023-06-22T00:09:59;9.80;;;2.17;;
69310;SDS011;56430;48.154;16.458;2023-06-22T00:12:27;10.57;;;2.20;;
69310;SDS011;56430;48.154;16.458;2023-06-22T00:14:54;8.57;;;2.38;;
69310;SDS011;56430;48.154;16.458;2023-06-22T00:17:21;9.63;;;2.40;;
69310;SDS011;56430;48.154;16.458;2023-06-22T00:19:47;6.35;;;2.20;;
69310;SDS011;56430;48.154;16.458;2023-06-22T00:22:18;7.65;;;1.98;;
69310;SDS011;56430;48.154;16.458;2023-06-22T00:24:47;4.60;;;1.87;;
69310;SDS011;56430;48.154;16.458;2023-06-22T00:27:13;7.30;;;1.88;;
69310;SDS011;56430;48.154;16.458;2023-06-22T00:29:42;6.18;;;1.98;;
69310;SDS011;56430;48.154;16.458;2023-06-22T00:32:09;8.02;;;2.00;;
69310;SDS011;56430;48.154;16.458;2023-06-22T00:34:35;4.50;;;2.00;;
69310;SDS011;56430;48.154;16.458;2023-06-22T00:37:02;10.03;;;2.63;;
69310;SDS011;56430;48.154;16.458;2023-06-22T00:39:30;6.07;;;2.17;;
69310;SDS011;56430;48.154;16.458;2023-06-22T00:41:59;7.30;;;2.10;;
69310;SDS011;56430;48.154;16.458;2023-06-22T00:44:26;9.15;;;2.17;;
69310;SDS011;56430;48.154;16.458;2023-06-22T00:46:54;13.50;;;2.30;;
69310;SDS011;56430;48.154;16.458;2023-06-22T00:49:21;5.90;;;2.20;;
69310;SDS011;56430;48.154;16.458;2023-06-22T00:51:48;6.43;;;1.80;;
69310;SDS011;56430;48.154;16.458;2023-06-22T00:54:14;5.72;;;1.92;;
69310;SDS011;56430;48.154;16.458;2023-06-22T00:56:41;7.88;;;2.40;;
69310;SDS011;56430;48.154;16.458;2023-06-22T00:59:09;6.95;;;1.90;;
69310;SDS011;56430;48.154;16.458;2023-06-22T01:01:37;7.63;;;2.17;;
69310;SDS011;56430;48.154;16.458;2023-06-22T01:04:08;4.47;;;2.20;;
69310;SDS011;56430;48.154;16.458;2023-06-22T01:06:37;9.55;;;1.98;;
69310;SDS011;56430;48.154;16.458;2023-06-22T01:09:06;7.22;;;2.03;;
69310;SDS011;56430;48.154;16.458;2023-06-22T01:11:36;11.35;;;2.22;;
69310;SDS011;56430;48.154;16.458;2023-06-22T01:14:06;9.38;;;2.17;;
69310;SDS011;56430;48.154;16.458;2023-06-22T01:16:37;8.90;;;2.30;;
69310;SDS011;56430;48.154;16.458;2023-06-22T01:19:09;10.73;;;2.33;;
69310;SDS011;56430;48.154;16.458;2023-06-22T01:21:40;8.82;;;2.67;;
69310;SDS011;56430;48.154;16.458;2023-06-22T01:24:10;7.93;;;2.28;;
69310;SDS011;56430;48.154;16.458;2023-06-22T01:26:42;9.13;;;2.30;;
69310;SDS011;56430;48.154;16.458;2023-06-22T01:29:11;6.53;;;1.93;;
69310;SDS011;56430;48.154;16.458;2023-06-22T01:31:39;9.87;;;2.70;;
69310;SDS011;56430;48.154;16.458;2023-06-22T01:34:07;6.07;;;2.47;;
69310;SDS011;56430;48.154;16.458;2023-06-22T01:36:35;7.68;;;2.65;;
69310;SDS011;56430;48.154;16.458;2023-06-22T01:39:02;12.32;;;2.42;;
69310;SDS011;56430;48.154;16.458;2023-06-22T01:41:29;9.30;;;2.50;;
69310;SDS011;56430;48.154;16.458;2023-06-22T01:43:56;9.97;;;2.20;;
69310;SDS011;56430;48.154;16.458;2023-06-22T01:46:25;6.70;;;1.80;;
69310;SDS011;56430;48.154;16.458;2023-06-22T01:48:52;9.40;;;2.15;;
69310;SDS011;56430;48.154;16.458;2023-06-22T01:51:20;10.38;;;2.47;;
69310;SDS011;56430;48.154;16.458;2023-06-22T01:53:46;5.18;;;2.00;;
69310;SDS011;56430;48.154;16.458;2023-06-22T01:56:14;12.07;;;2.27;;
69310;SDS011;56430;48.154;16.458;2023-06-22T01:58:46;7.10;;;2.08;;
69310;SDS011;56430;48.154;16.458;2023-06-22T02:01:13;8.93;;;2.15;;
69310;SDS011;56430;48.154;16.458;2023-06-22T02:03:44;8.93;;;2.17;;
69310;SDS011;56430;48.154;16.458;2023-06-22T02:06:15;10.43;;;1.98;;
69310;SDS011;56430;48.154;16.458;2023-06-22T02:08:45;8.47;;;1.67;;
69310;SDS011;56430;48.154;16.458;2023-06-22T02:11:14;5.50;;;2.35;;
69310;SDS011;56430;48.154;16.458;2023-06-22T02:13:41;6.85;;;2.25;;
69310;SDS011;56430;48.154;16.458;2023-06-22T02:16:09;8.95;;;2.20;;
69310;SDS011;56430;48.154;16.458;2023-06-22T02:18:36;7.68;;;2.33;;
69310;SDS011;56430;48.154;16.458;2023-06-22T02:21:04;7.37;;;2.03;;
69310;SDS011;56430;48.154;16.458;2023-06-22T02:23:31;9.13;;;2.10;;
69310;SDS011;56430;48.154;16.458;2023-06-22T02:26:00;11.30;;;2.63;;
69310;SDS011;56430;48.154;16.458;2023-06-22T02:28:27;11.32;;;3.08;;
69310;SDS011;56430;48.154;16.458;2023-06-22T02:30:54;7.25;;;2.28;;
69310;SDS011;56430;48.154;16.458;2023-06-22T02:33:21;8.50;;;2.50;;
69310;SDS011;56430;48.154;16.458;2023-06-22T02:35:48;8.50;;;2.35;;
69310;SDS011;56430;48.154;16.458;2023-06-22T02:38:16;6.65;;;2.40;;
69310;SDS011;56430;48.154;16.458;2023-06-22T02:40:44;7.30;;;2.72;;
69310;SDS011;56430;48.154;16.458;2023-06-22T02:43:12;6.45;;;2.22;;
69310;SDS011;56430;48.154;16.458;2023-06-22T02:45:39;7.57;;;2.13;;
69310;SDS011;56430;48.154;16.458;2023-06-22T02:48:06;11.40;;;2.67;;
69310;SDS011;56430;48.154;16.458;2023-06-22T02:50:33;8.25;;;2.72;;
69310;SDS011;56430;48.154;16.458;2023-06-22T02:52:59;8.88;;;2.72;;
69310;SDS011;56430;48.154;16.458;2023-06-22T02:55:28;10.18;;;2.80;;
69310;SDS011;56430;48.154;16.458;2023-06-22T02:57:54;7.80;;;2.67;;
69310;SDS011;56430;48.154;16.458;2023-06-22T03:00:22;9.18;;;3.20;;
69310;SDS011;56430;48.154;16.458;2023-06-22T03:02:55;15.35;;;3.20;;
69310;SDS011;56430;48.154;16.458;2023-06-22T03:05:22;7.40;;;3.00;;
69310;SDS011;56430;48.154;16.458;2023-06-22T03:07:49;7.43;;;3.17;;
69310;SDS011;56430;48.154;16.458;2023-06-22T03:10:16;13.70;;;3.37;;
69310;SDS011;56430;48.154;16.458;2023-06-22T03:12:44;9.55;;;3.67;;
69310;SDS011;56430;48.154;16.458;2023-06-22T03:15:11;7.93;;;3.40;;
69310;SDS011;56430;48.154;16.458;2023-06-22T03:17:39;9.02;;;3.85;;
69310;SDS011;56430;48.154;16.458;2023-06-22T03:20:07;14.68;;;3.67;;
69310;SDS011;56430;48.154;16.458;2023-06-22T03:22:36;11.80;;;3.20;;
69310;SDS011;56430;48.154;16.458;2023-06-22T03:25:03;16.70;;;3.55;;
69310;SDS011;56430;48.154;16.458;2023-06-22T03:27:30;10.15;;;4.10;;
69310;SDS011;56430;48.154;16.458;2023-06-22T03:29:58;9.90;;;4.22;;
69310;SDS011;56430;48.154;16.458;2023-06-22T03:32:25;11.27;;;4.28;;
69310;SDS011;56430;48.154;16.458;2023-06-22T03:34:53;10.37;;;3.87;;
69310;SDS011;56430;48.154;16.458;2023-06-22T03:37:24;8.90;;;3.90;;
69310;SDS011;56430;48.154;16.458;2023-06-22T03:39:51;8.55;;;3.58;;
69310;SDS011;56430;48.154;16.458;2023-06-22T03:42:17;9.10;;;3.42;;
69310;SDS011;56430;48.154;16.458;2023-06-22T03:44:44;12.27;;;3.75;;
69310;SDS011;56430;48.154;16.458;2023-06-22T03:47:12;9.68;;;3.22;;
69310;SDS011;56430;48.154;16.458;2023-06-22T03:49:39;13.10;;;3.50;;
69310;SDS011;56430;48.154;16.458;2023-06-22T03:52:06;13.93;;;3.97;;
69310;SDS011;56430;48.154;16.458;2023-06-22T03:54:33;10.07;;;3.58;;
69310;SDS011;56430;48.154;16.458;2023-06-22T03:57:00;12.40;;;3.83;;
69310;SDS011;56430;48.154;16.458;2023-06-22T03:59:27;13.57;;;4.38;;
69310;SDS011;56430;48.154;16.458;2023-06-22T04:01:54;12.33;;;3.27;;
69310;SDS011;56430;48.154;16.458;2023-06-22T04:04:22;6.82;;;3.30;;
69310;SDS011;56430;48.154;16.458;2023-06-22T04:06:49;14.65;;;3.83;;
69310;SDS011;56430;48.154;16.458;2023-06-22T04:09:16;8.07;;;3.05;;
69310;SDS011;56430;48.154;16.458;2023-06-22T04:11:43;10.48;;;3.30;;
69310;SDS011;56430;48.154;16.458;2023-06-22T04:14:09;6.47;;;3.43;;
69310;SDS011;56430;48.154;16.458;2023-06-22T04:16:36;7.97;;;3.03;;
69310;SDS011;56430;48.154;16.458;2023-06-22T04:19:03;11.27;;;3.13;;
69310;SDS011;56430;48.154;16.458;2023-06-22T04:21:31;7.68;;;3.35;;
69310;SDS011;56430;48.154;16.458;2023-06-22T04:23:58;12.05;;;3.33;;
69310;SDS011;56430;48.154;16.458;2023-06-22T04:26:25;12.40;;;4.30;;
69310;SDS011;56430;48.154;16.458;2023-06-22T04:28:52;13.40;;;4.15;;
69310;SDS011;56430;48.154;16.458;2023-06-22T04:31:21;9.45;;;3.60;;
69310;SDS011;56430;48.154;16.458;2023-06-22T04:33:57;15.73;;;4.10;;
69310;SDS011;56430;48.154;16.458;2023-06-22T04:36:32;9.27;;;4.18;;
69310;SDS011;56430;48.154;16.458;2023-06-22T04:39:04;13.33;;;4.17;;
69310;SDS011;56430;48.154;16.458;2023-06-22T04:41:31;11.48;;;4.25;;
69310;SDS011;56430;48.154;16.458;2023-06-22T04:44:08;13.45;;;4.05;;
69310;SDS011;56430;48.154;16.458;2023-06-22T04:46:34;11.82;;;4.15;;
69310;SDS011;56430;48.154;16.458;2023-06-22T04:49:04;13.27;;;4.20;;
69310;SDS011;56430;48.154;16.458;2023-06-22T04:51:38;14.80;;;4.03;;
69310;SDS011;56430;48.154;16.458;2023-06-22T04:54:06;13.43;;;4.40;;
69310;SDS011;56430;48.154;16.458;2023-06-22T04:56:33;10.38;;;4.32;;
69310;SDS011;56430;48.154;16.458;2023-06-22T04:59:00;11.75;;;3.92;;
69310;SDS011;56430;48.154;16.458;2023-06-22T05:01:27;10.82;;;4.13;;
69310;SDS011;56430;48.154;16.458;2023-06-22T05:03:53;14.97;;;4.17;;
69310;SDS011;56430;48.154;16.458;2023-06-22T05:06:22;12.53;;;3.90;;
69310;SDS011;56430;48.154;16.458;2023-06-22T05:08:53;9.30;;;3.88;;
69310;SDS011;56430;48.154;16.458;2023-06-22T05:11:22;7.35;;;3.50;;
69310;SDS011;56430;48.154;16.458;2023-06-22T05:13:49;10.20;;;4.22;;
69310;SDS011;56430;48.154;16.458;2023-06-22T05:16:16;9.77;;;3.50;;
69310;SDS011;56430;48.154;16.458;2023-06-22T05:18:43;11.00;;;3.70;;
69310;SDS011;56430;48.154;16.458;2023-06-22T05:21:10;11.63;;;3.70;;
69310;SDS011;56430;48.154;16.458;2023-06-22T05:23:36;11.73;;;4.00;;
69310;SDS011;56430;48.154;16.458;2023-06-22T05:26:05;10.93;;;3.90;;
69310;SDS011;56430;48.154;16.458;2023-06-22T05:28:34;8.75;;;3.63;;
69310;SDS011;56430;48.154;16.458;2023-06-22T05:31:01;11.98;;;3.80;;
69310;SDS011;56430;48.154;16.458;2023-06-22T05:33:29;10.57;;;4.03;;
69310;SDS011;56430;48.154;16.458;2023-06-22T05:35:56;12.20;;;4.20;;
69310;SDS011;56430;48.154;16.458;2023-06-22T05:38:23;10.60;;;3.83;;
69310;SDS011;56430;48.154;16.458;2023-06-22T05:40:49;8.52;;;3.70;;
69310;SDS011;56430;48.154;16.458;2023-06-22T05:43:18;9.40;;;4.38;;
69310;SDS011;56430;48.154;16.458;2023-06-22T05:45:44;11.93;;;3.97;;
69310;SDS011;56430;48.154;16.458;2023-06-22T05:48:11;10.68;;;4.03;;
69310;SDS011;56430;48.154;16.458;2023-06-22T05:50:38;13.70;;;3.73;;
69310;SDS011;56430;48.154;16.458;2023-06-22T05:53:05;9.70;;;3.33;;
69310;SDS011;56430;48.154;16.458;2023-06-22T05:55:32;12.20;;;3.55;;
69310;SDS011;56430;48.154;16.458;2023-06-22T05:57:59;13.55;;;3.35;;
69310;SDS011;56430;48.154;16.458;2023-06-22T06:00:27;11.93;;;3.30;;
69310;SDS011;56430;48.154;16.458;2023-06-22T06:02:54;8.15;;;3.97;;
69310;SDS011;56430;48.154;16.458;2023-06-22T06:05:21;10.50;;;4.20;;
69310;SDS011;56430;48.154;16.458;2023-06-22T06:07:49;11.35;;;4.40;;
69310;SDS011;56430;48.154;16.458;2023-06-22T06:10:16;11.10;;;4.23;;
69310;SDS011;56430;48.154;16.458;2023-06-22T06:12:43;12.60;;;3.80;;
69310;SDS011;56430;48.154;16.458;2023-06-22T06:15:09;12.60;;;3.92;;
69310;SDS011;56430;48.154;16.458;2023-06-22T06:17:44;12.48;;;4.85;;
69310;SDS011;56430;48.154;16.458;2023-06-22T06:20:11;12.57;;;4.03;;
69310;SDS011;56430;48.154;16.458;2023-06-22T06:22:38;13.20;;;5.40;;
69310;SDS011;56430;48.154;16.458;2023-06-22T06:25:05;11.75;;;4.80;;
69310;SDS011;56430;48.154;16.458;2023-06-22T06:27:32;13.32;;;5.32;;
69310;SDS011;56430;48.154;16.458;2023-06-22T06:29:59;11.68;;;5.00;;
69310;SDS011;56430;48.154;16.458;2023-06-22T06:32:26;13.67;;;4.90;;
69310;SDS011;56430;48.154;16.458;2023-06-22T06:34:54;9.93;;;4.43;;
69310;SDS011;56430;48.154;16.458;2023-06-22T06:37:21;10.82;;;4.45;;
69310;SDS011;56430;48.154;16.458;2023-06-22T06:39:48;9.10;;;4.53;;
69310;SDS011;56430;48.154;16.458;2023-06-22T06:42:15;10.93;;;4.60;;
69310;SDS011;56430;48.154;16.458;2023-06-22T06:44:41;12.13;;;5.10;;
69310;SDS011;56430;48.154;16.458;2023-06-22T06:47:08;11.15;;;4.95;;
69310;SDS011;56430;48.154;16.458;2023-06-22T06:49:36;10.48;;;5.40;;
69310;SDS011;56430;48.154;16.458;2023-06-22T06:52:05;14.68;;;5.38;;
69310;SDS011;56430;48.154;16.458;2023-06-22T06:54:32;13.40;;;5.30;;
69310;SDS011;56430;48.154;16.458;2023-06-22T06:56:58;12.83;;;5.80;;
69310;SDS011;56430;48.154;16.458;2023-06-22T06:59:25;12.52;;;6.32;;
69310;SDS011;56430;48.154;16.458;2023-06-22T07:01:52;12.45;;;5.68;;
69310;SDS011;56430;48.154;16.458;2023-06-22T07:04:19;12.30;;;5.47;;
69310;SDS011;56430;48.154;16.458;2023-06-22T07:06:46;13.13;;;5.60;;
69310;SDS011;56430;48.154;16.458;2023-06-22T07:09:14;11.63;;;6.38;;
69310;SDS011;56430;48.154;16.458;2023-06-22T07:11:41;10.30;;;5.90;;
69310;SDS011;56430;48.154;16.458;2023-06-22T07:14:08;14.40;;;6.18;;
69310;SDS011;56430;48.154;16.458;2023-06-22T07:16:34;12.95;;;5.95;;
69310;SDS011;56430;48.154;16.458;2023-06-22T07:19:01;11.63;;;5.63;;
69310;SDS011;56430;48.154;16.458;2023-06-22T07:21:28;12.20;;;5.80;;
69310;SDS011;56430;48.154;16.458;2023-06-22T07:23:55;10.07;;;5.72;;
69310;SDS011;56430;48.154;16.458;2023-06-22T07:26:23;10.35;;;6.22;;
69310;SDS011;56430;48.154;16.458;2023-06-22T07:28:50;16.80;;;6.25;;
69310;SDS011;56430;48.154;16.458;2023-06-22T07:31:17;10.77;;;6.05;;
69310;SDS011;56430;48.154;16.458;2023-06-22T07:33:44;12.15;;;6.45;;
69310;SDS011;56430;48.154;16.458;2023-06-22T07:36:11;11.10;;;5.55;;
69310;SDS011;56430;48.154;16.458;2023-06-22T07:38:37;13.00;;;5.97;;
69310;SDS011;56430;48.154;16.458;2023-06-22T07:41:04;15.82;;;6.95;;
69310;SDS011;56430;48.154;16.458;2023-06-22T07:43:33;13.03;;;5.37;;
69310;SDS011;56430;48.154;16.458;2023-06-22T07:46:02;11.87;;;5.87;;
69310;SDS011;56430;48.154;16.458;2023-06-22T07:48:29;12.55;;;6.05;;
69310;SDS011;56430;48.154;16.458;2023-06-22T07:50:56;11.85;;;5.45;;
69310;SDS011;56430;48.154;16.458;2023-06-22T07:53:22;11.55;;;5.93;;
69310;SDS011;56430;48.154;16.458;2023-06-22T07:55:49;12.98;;;5.65;;
69310;SDS011;56430;48.154;16.458;2023-06-22T07:58:16;9.82;;;5.78;;
69310;SDS011;56430;48.154;16.458;2023-06-22T08:00:45;13.45;;;7.57;;
69310;SDS011;56430;48.154;16.458;2023-06-22T08:03:14;10.15;;;6.80;;
69310;SDS011;56430;48.154;16.458;2023-06-22T08:05:41;12.55;;;6.53;;
69310;SDS011;56430;48.154;16.458;2023-06-22T08:08:07;10.53;;;5.57;;
69310;SDS011;56430;48.154;16.458;2023-06-22T08:10:34;10.27;;;5.53;;
69310;SDS011;56430;48.154;16.458;2023-06-22T08:13:01;10.43;;;5.80;;
69310;SDS011;56430;48.154;16.458;2023-06-22T08:15:28;10.85;;;5.85;;
69310;SDS011;56430;48.154;16.458;2023-06-22T08:17:56;8.52;;;6.07;;
69310;SDS011;56430;48.154;16.458;2023-06-22T08:20:24;10.25;;;5.07;;
69310;SDS011;56430;48.154;16.458;2023-06-22T08:22:52;7.22;;;5.55;;
69310;SDS011;56430;48.154;16.458;2023-06-22T08:25:20;10.23;;;5.85;;
69310;SDS011;56430;48.154;16.458;2023-06-22T08:27:47;9.20;;;5.80;;
69310;SDS011;56430;48.154;16.458;2023-06-22T08:30:14;8.32;;;5.82;;
69310;SDS011;56430;48.154;16.458;2023-06-22T08:32:41;7.03;;;6.20;;
69310;SDS011;56430;48.154;16.458;2023-06-22T08:35:09;9.20;;;6.37;;
69310;SDS011;56430;48.154;16.458;2023-06-22T08:37:36;10.10;;;6.35;;
69310;SDS011;56430;48.154;16.458;2023-06-22T08:40:05;8.52;;;6.22;;
69310;SDS011;56430;48.154;16.458;2023-06-22T08:42:33;9.85;;;6.03;;
69310;SDS011;56430;48.154;16.458;2023-06-22T08:45:00;8.68;;;5.85;;
69310;SDS011;56430;48.154;16.458;2023-06-22T08:47:27;8.23;;;6.03;;
69310;SDS011;56430;48.154;16.458;2023-06-22T08:49:53;7.45;;;6.10;;
69310;SDS011;56430;48.154;16.458;2023-06-22T08:52:22;9.48;;;6.70;;
69310;SDS011;56430;48.154;16.458;2023-06-22T08:54:49;8.77;;;6.82;;
69310;SDS011;56430;48.154;16.458;2023-06-22T08:57:16;8.03;;;6.20;;
69310;SDS011;56430;48.154;16.458;2023-06-22T08:59:43;8.53;;;6.30;;
69310;SDS011;56430;48.154;16.458;2023-06-22T09:02:10;7.30;;;6.60;;
69310;SDS011;56430;48.154;16.458;2023-06-22T09:04:37;7.88;;;5.82;;
69310;SDS011;56430;48.154;16.458;2023-06-22T09:07:04;7.05;;;6.22;;
69310;SDS011;56430;48.154;16.458;2023-06-22T09:09:32;8.50;;;7.00;;
69310;SDS011;56430;48.154;16.458;2023-06-22T09:11:59;11.05;;;6.80;;
69310;SDS011;56430;48.154;16.458;2023-06-22T09:14:26;7.85;;;6.22;;
69310;SDS011;56430;48.154;16.458;2023-06-22T09:16:53;9.18;;;6.70;;
69310;SDS011;56430;48.154;16.458;2023-06-22T09:19:20;9.40;;;6.75;;
69310;SDS011;56430;48.154;16.458;2023-06-22T09:21:46;10.47;;;7.27;;
69310;SDS011;56430;48.154;16.458;2023-06-22T09:24:13;10.13;;;7.23;;
69310;SDS011;56430;48.154;16.458;2023-06-22T09:26:42;8.43;;;6.53;;
69310;SDS011;56430;48.154;16.458;2023-06-22T09:29:09;9.18;;;7.13;;
69310;SDS011;56430;48.154;16.458;2023-06-22T09:31:35;10.75;;;7.82;;
69310;SDS011;56430;48.154;16.458;2023-06-22T09:34:02;8.93;;;7.13;;
69310;SDS011;56430;48.154;16.458;2023-06-22T09:36:30;8.60;;;6.70;;
69310;SDS011;56430;48.154;16.458;2023-06-22T09:38:57;8.15;;;7.10;;
69310;SDS011;56430;48.154;16.458;2023-06-22T09:41:24;10.80;;;8.30;;
69310;SDS011;56430;48.154;16.458;2023-06-22T09:43:52;10.05;;;7.40;;
69310;SDS011;56430;48.154;16.458;2023-06-22T09:46:19;8.03;;;7.20;;
69310;SDS011;56430;48.154;16.458;2023-06-22T17:46:58;8.68;;;4.03;;
69310;SDS011;56430;48.154;16.458;2023-06-22T17:49:26;7.63;;;4.15;;
69310;SDS011;56430;48.154;16.458;2023-06-22T17:51:52;8.20;;;4.50;;
69310;SDS011;56430;48.154;16.458;2023-06-22T17:54:19;10.23;;;4.03;;
69310;SDS011;56430;48.154;16.458;2023-06-22T17:56:49;7.15;;;4.10;;
69310;SDS011;56430;48.154;16.458;2023-06-22T17:59:17;6.65;;;4.43;;
69310;SDS011;56430;48.154;16.458;2023-06-22T18:01:44;7.93;;;4.45;;
69310;SDS011;56430;48.154;16.458;2023-06-22T18:04:12;6.03;;;4.43;;
69310;SDS011;56430;48.154;16.458;2023-06-22T18:06:40;8.85;;;4.72;;
69310;SDS011;56430;48.154;16.458;2023-06-22T18:09:08;11.13;;;4.50;;
69310;SDS011;56430;48.154;16.458;2023-06-22T18:11:36;10.68;;;4.53;;
69310;SDS011;56430;48.154;16.458;2023-06-22T18:14:07;7.55;;;4.47;;
69310;SDS011;56430;48.154;16.458;2023-06-22T18:16:34;8.07;;;4.80;;
69310;SDS011;56430;48.154;16.458;2023-06-22T18:19:01;9.40;;;4.43;;
69310;SDS011;56430;48.154;16.458;2023-06-22T18:21:30;7.28;;;4.18;;
69310;SDS011;56430;48.154;16.458;2023-06-22T18:23:57;6.90;;;4.35;;
69310;SDS011;56430;48.154;16.458;2023-06-22T18:26:24;10.35;;;4.63;;
69310;SDS011;56430;48.154;16.458;2023-06-22T18:28:52;9.75;;;4.60;;
69310;SDS011;56430;48.154;16.458;2023-06-22T18:31:19;9.07;;;4.63;;
69310;SDS011;56430;48.154;16.458;2023-06-22T18:33:48;8.93;;;5.00;;
69310;SDS011;56430;48.154;16.458;2023-06-22T18:36:15;7.68;;;4.13;;
69310;SDS011;56430;48.154;16.458;2023-06-22T18:38:44;7.32;;;4.18;;
69310;SDS011;56430;48.154;16.458;2023-06-22T18:41:20;7.43;;;4.20;;
69310;SDS011;56430;48.154;16.458;2023-06-22T18:43:47;9.37;;;4.20;;
69310;SDS011;56430;48.154;16.458;2023-06-22T18:48:58;7.38;;;4.40;;
69310;SDS011;56430;48.154;16.458;2023-06-22T18:51:25;8.70;;;4.85;;
69310;SDS011;56430;48.154;16.458;2023-06-22T18:54:03;9.27;;;4.90;;
69310;SDS011;56430;48.154;16.458;2023-06-22T18:56:30;8.30;;;4.78;;
69310;SDS011;56430;48.154;16.458;2023-06-22T18:58:57;8.90;;;4.60;;
69310;SDS011;56430;48.154;16.458;2023-06-22T19:01:24;8.02;;;4.20;;
69310;SDS011;56430;48.154;16.458;2023-06-22T19:03:51;12.13;;;4.55;;
69310;SDS011;56430;48.154;16.458;2023-06-22T19:09:13;9.83;;;4.30;;
69310;SDS011;56430;48.154;16.458;2023-06-22T19:11:41;10.43;;;4.00;;
69310;SDS011;56430;48.154;16.458;2023-06-22T19:14:08;6.80;;;4.00;;
69310;SDS011;56430;48.154;16.458;2023-06-22T19:16:35;6.50;;;3.72;;
69310;SDS011;56430;48.154;16.458;2023-06-22T19:19:11;7.00;;;3.80;;
69310;SDS011;56430;48.154;16.458;2023-06-22T19:21:38;11.77;;;4.40;;
69310;SDS011;56430;48.154;16.458;2023-06-22T19:24:06;7.90;;;3.70;;
69310;SDS011;56430;48.154;16.458;2023-06-22T19:26:35;7.00;;;4.07;;
69310;SDS011;56430;48.154;16.458;2023-06-22T19:29:03;9.30;;;3.83;;
69310;SDS011;56430;48.154;16.458;2023-06-22T19:31:42;8.77;;;3.70;;
69310;SDS011;56430;48.154;16.458;2023-06-22T19:34:09;10.57;;;3.87;;
69310;SDS011;56430;48.154;16.458;2023-06-22T19:36:37;8.43;;;3.88;;
69310;SDS011;56430;48.154;16.458;2023-06-22T19:39:04;9.10;;;4.15;;
69310;SDS011;56430;48.154;16.458;2023-06-22T19:41:32;8.18;;;3.92;;
69310;SDS011;56430;48.154;16.458;2023-06-22T19:44:00;8.60;;;4.30;;
69310;SDS011;56430;48.154;16.458;2023-06-22T19:46:29;9.15;;;4.30;;
69310;SDS011;56430;48.154;16.458;2023-06-22T19:48:57;9.82;;;4.32;;
69310;SDS011;56430;48.154;16.458;2023-06-22T19:51:30;8.50;;;3.97;;
69310;SDS011;56430;48.154;16.458;2023-06-22T19:54:03;8.02;;;3.90;;
69310;SDS011;56430;48.154;16.458;2023-06-22T19:56:30;9.40;;;3.97;;
69310;SDS011;56430;48.154;16.458;2023-06-22T19:59:08;7.77;;;4.17;;
69310;SDS011;56430;48.154;16.458;2023-06-22T20:01:35;8.48;;;3.53;;
69310;SDS011;56430;48.154;16.458;2023-06-22T20:04:03;6.45;;;3.92;;
69310;SDS011;56430;48.154;16.458;2023-06-22T20:06:30;6.88;;;4.13;;
69310;SDS011;56430;48.154;16.458;2023-06-22T20:08:58;11.77;;;4.10;;
69310;SDS011;56430;48.154;16.458;2023-06-22T20:11:29;6.82;;;4.00;;
69310;SDS011;56430;48.154;16.458;2023-06-22T20:13:58;8.00;;;3.17;;
69310;SDS011;56430;48.154;16.458;2023-06-22T20:16:26;6.65;;;3.60;;
69310;SDS011;56430;48.154;16.458;2023-06-22T20:19:05;6.82;;;3.38;;
69310;SDS011;56430;48.154;16.458;2023-06-22T20:21:33;7.97;;;3.63;;
69310;SDS011;56430;48.154;16.458;2023-06-22T20:24:02;10.80;;;3.57;;
69310;SDS011;56430;48.154;16.458;2023-06-22T20:26:28;6.28;;;3.67;;
69310;SDS011;56430;48.154;16.458;2023-06-22T20:28:55;8.73;;;3.30;;
69310;SDS011;56430;48.154;16.458;2023-06-22T20:31:22;7.40;;;3.58;;
69310;SDS011;56430;48.154;16.458;2023-06-22T20:34:03;10.23;;;3.63;;
69310;SDS011;56430;48.154;16.458;2023-06-22T20:36:29;11.15;;;4.13;;
69310;SDS011;56430;48.154;16.458;2023-06-22T20:38:58;8.93;;;4.10;;
69310;SDS011;56430;48.154;16.458;2023-06-22T20:41:24;10.20;;;3.65;;
69310;SDS011;56430;48.154;16.458;2023-06-22T20:43:54;9.95;;;3.92;;
69310;SDS011;56430;48.154;16.458;2023-06-22T20:46:21;10.77;;;3.83;;
69310;SDS011;56430;48.154;16.458;2023-06-22T20:48:48;8.00;;;3.70;;
69310;SDS011;56430;48.154;16.458;2023-06-22T20:51:17;9.48;;;3.55;;
69310;SDS011;56430;48.154;16.458;2023-06-22T20:53:43;12.45;;;3.95;;
69310;SDS011;56430;48.154;16.458;2023-06-22T20:56:10;9.65;;;4.20;;
69310;SDS011;56430;48.154;16.458;2023-06-22T20:58:37;14.82;;;4.95;;
69310;SDS011;56430;48.154;16.458;2023-06-22T21:01:04;8.02;;;4.00;;
69310;SDS011;56430;48.154;16.458;2023-06-22T21:03:31;11.82;;;4.60;;
69310;SDS011;56430;48.154;16.458;2023-06-22T21:05:58;11.60;;;4.90;;
69310;SDS011;56430;48.154;16.458;2023-06-22T21:08:26;9.68;;;4.25;;
69310;SDS011;56430;48.154;16.458;2023-06-22T21:10:53;9.67;;;4.60;;
69310;SDS011;56430;48.154;16.458;2023-06-22T21:13:20;11.47;;;5.13;;
69310;SDS011;56430;48.154;16.458;2023-06-22T21:15:47;10.00;;;4.90;;
69310;SDS011;56430;48.154;16.458;2023-06-22T21:18:14;12.68;;;4.50;;
69310;SDS011;56430;48.154;16.458;2023-06-22T21:20:41;7.32;;;4.85;;
69310;SDS011;56430;48.154;16.458;2023-06-22T21:23:08;8.27;;;4.90;;
69310;SDS011;56430;48.154;16.458;2023-06-22T21:25:36;10.43;;;5.15;;
69310;SDS011;56430;48.154;16.458;2023-06-22T21:28:03;8.77;;;4.75;;
69310;SDS011;56430;48.154;16.458;2023-06-22T21:30:30;8.75;;;5.28;;
69310;SDS011;56430;48.154;16.458;2023-06-22T21:35:59;8.93;;;5.30;;
69310;SDS011;56430;48.154;16.458;2023-06-22T21:38:26;9.27;;;5.63;;
69310;SDS011;56430;48.154;16.458;2023-06-22T21:40:54;13.52;;;6.50;;
69310;SDS011;56430;48.154;16.458;2023-06-22T21:43:21;11.98;;;6.20;;
69310;SDS011;56430;48.154;16.458;2023-06-22T21:45:48;11.07;;;6.57;;
69310;SDS011;56430;48.154;16.458;2023-06-22T21:48:16;11.50;;;5.97;;
69310;SDS011;56430;48.154;16.458;2023-06-22T21:50:42;12.07;;;5.93;;
69310;SDS011;56430;48.154;16.458;2023-06-22T21:53:09;13.88;;;6.20;;
69310;SDS011;56430;48.154;16.458;2023-06-22T21:55:36;9.75;;;6.20;;
69310;SDS011;56430;48.154;16.458;2023-06-22T21:58:04;13.40;;;6.50;;
69310;SDS011;56430;48.154;16.458;2023-06-22T22:00:31;12.50;;;6.20;;
69310;SDS011;56430;48.154;16.458;2023-06-22T22:02:58;12.33;;;5.97;;
69310;SDS011;56430;48.154;16.458;2023-06-22T22:05:25;10.70;;;6.38;;
69310;SDS011;56430;48.154;16.458;2023-06-22T22:07:52;14.23;;;6.05;;
69310;SDS011;56430;48.154;16.458;2023-06-22T22:10:19;12.25;;;6.68;;
69310;SDS011;56430;48.154;16.458;2023-06-22T22:12:45;12.13;;;7.00;;
69310;SDS011;56430;48.154;16.458;2023-06-22T22:15:16;12.65;;;6.50;;
69310;SDS011;56430;48.154;16.458;2023-06-22T22:17:43;14.20;;;7.10;;
69310;SDS011;56430;48.154;16.458;2023-06-22T22:20:11;12.52;;;6.07;;
69310;SDS011;56430;48.154;16.458;2023-06-22T22:22:38;13.75;;;6.80;;
69310;SDS011;56430;48.154;16.458;2023-06-22T22:25:05;11.33;;;6.87;;
69310;SDS011;56430;48.154;16.458;2023-06-22T22:27:32;12.73;;;6.53;;
69310;SDS011;56430;48.154;16.458;2023-06-22T22:29:59;13.45;;;6.30;;
69310;SDS011;56430;48.154;16.458;2023-06-22T22:32:27;10.70;;;6.72;;
69310;SDS011;56430;48.154;16.458;2023-06-22T22:34:54;12.80;;;6.22;;
69310;SDS011;56430;48.154;16.458;2023-06-22T22:37:20;13.40;;;6.60;;